createdAt,value
2022-11-17T00:00:16.722Z,1001.1
2022-11-17T00:05:09.149Z,1001.08
2022-11-17T00:10:01.621Z,1001.08
2022-11-17T00:14:54.210Z,1001
2022-11-17T00:19:46.763Z,1000.98
2022-11-17T00:24:39.370Z,1000.91
2022-11-17T00:29:31.864Z,1000.86
2022-11-17T00:34:24.684Z,1000.83
2022-11-17T00:39:17.470Z,1000.75
2022-11-17T00:44:09.838Z,1000.67
2022-11-17T00:49:02.361Z,1000.57
2022-11-17T00:53:54.883Z,1000.49
2022-11-17T00:58:47.457Z,1000.51
2022-11-17T01:03:39.944Z,1000.42
2022-11-17T01:08:32.466Z,1000.27
2022-11-17T01:13:25.158Z,1000.32
2022-11-17T01:18:17.877Z,1000.39
2022-11-17T01:23:10.178Z,1000.45
2022-11-17T01:28:02.761Z,1000.39
2022-11-17T01:32:55.239Z,1000.42
2022-11-17T01:37:47.943Z,1000.28
2022-11-17T01:42:40.555Z,1000.13
2022-11-17T01:47:33.168Z,1000.21
2022-11-17T01:52:25.699Z,1000.04
2022-11-17T02:02:10.934Z,999.91
2022-11-17T02:11:55.904Z,999.97
2022-11-17T02:21:41.129Z,999.87
2022-11-17T02:31:26.282Z,999.97
2022-11-17T02:36:18.885Z,999.96
2022-11-17T02:41:11.280Z,999.83
2022-11-17T02:46:03.781Z,999.77
2022-11-17T02:50:56.379Z,999.74
2022-11-17T02:55:49.041Z,999.67
2022-11-17T03:00:41.465Z,999.62
2022-11-17T03:05:34.134Z,999.59
2022-11-17T03:10:26.666Z,999.53
2022-11-17T03:15:19.213Z,999.48
2022-11-17T03:20:11.718Z,999.52
2022-11-17T03:25:04.031Z,999.44
2022-11-17T03:29:56.807Z,999.36
2022-11-17T03:34:49.495Z,999.34
2022-11-17T03:39:42.070Z,999.29
2022-11-17T03:44:34.522Z,999.2
2022-11-17T03:49:26.999Z,999.11
2022-11-17T03:54:19.582Z,999.02
2022-11-17T03:59:12.153Z,998.98
2022-11-17T04:04:04.744Z,998.86
2022-11-17T04:08:57.451Z,998.85
2022-11-17T04:13:50.057Z,998.85
2022-11-17T04:18:42.630Z,998.87
2022-11-17T04:23:35.649Z,998.91
2022-11-17T04:28:27.848Z,998.87
2022-11-17T04:33:20.707Z,998.9
2022-11-17T04:38:13.045Z,998.89
2022-11-17T04:43:05.647Z,998.83
2022-11-17T04:47:58.201Z,998.67
2022-11-17T04:52:50.846Z,998.61
2022-11-17T04:57:43.521Z,998.47
2022-11-17T05:02:36.313Z,998.36
2022-11-17T05:07:28.912Z,998.22
2022-11-17T05:12:21.735Z,998.06
2022-11-17T05:17:14.210Z,997.97
2022-11-17T05:22:06.667Z,997.97
2022-11-17T05:26:59.237Z,997.89
2022-11-17T05:31:51.960Z,997.89
2022-11-17T05:36:44.579Z,997.81
2022-11-17T05:41:37.309Z,997.8
2022-11-17T05:46:29.835Z,997.73
2022-11-17T05:51:22.473Z,997.7
2022-11-17T05:56:14.860Z,997.73
2022-11-17T06:01:07.632Z,997.74
2022-11-17T06:06:00.648Z,997.71
2022-11-17T06:10:53.374Z,997.65
2022-11-17T06:15:46.036Z,997.6
2022-11-17T06:20:38.868Z,997.62
2022-11-17T06:25:31.362Z,997.66
2022-11-17T06:30:24.053Z,997.74
2022-11-17T06:35:16.507Z,997.73
2022-11-17T06:40:09.053Z,997.79
2022-11-17T06:45:01.711Z,997.8
2022-11-17T06:49:53.862Z,997.71
2022-11-17T06:54:46.269Z,997.59
2022-11-17T07:15:58.467Z,997.76
